createdAt,value
2023-04-06T00:03:53.348Z,2.22
2023-04-06T00:06:21.675Z,5.60
2023-04-06T00:08:50.784Z,3.33
2023-04-06T00:11:19.540Z,3.45
2023-04-06T00:13:50.535Z,3.20
2023-04-06T00:16:22.403Z,3.03
2023-04-06T00:18:52.381Z,1.77
2023-04-06T00:21:23.391Z,3.55
2023-04-06T00:23:52.049Z,4.72
2023-04-06T00:26:23.373Z,3.13
2023-04-06T00:28:53.758Z,4.93
2023-04-06T00:31:25.768Z,2.53
2023-04-06T00:33:55.122Z,5.03
2023-04-06T00:36:23.514Z,3.42
2023-04-06T00:38:52.840Z,2.83
2023-04-06T00:41:21.725Z,3.58
2023-04-06T00:43:50.210Z,3.70
2023-04-06T00:46:18.864Z,3.85
2023-04-06T00:48:51.731Z,3.72
2023-04-06T00:51:22.475Z,3.92
2023-04-06T00:53:50.783Z,3.17
2023-04-06T00:56:22.239Z,10.55
2023-04-06T00:58:56.971Z,3.20
2023-04-06T01:01:29.711Z,4.32
2023-04-06T01:04:03.887Z,5.95
2023-04-06T01:06:35.445Z,5.47
2023-04-06T01:09:05.008Z,4.35
2023-04-06T01:11:35.366Z,3.72
2023-04-06T01:14:06.679Z,2.63
2023-04-06T01:16:56.408Z,3.40
2023-04-06T01:19:30.782Z,1.88
2023-04-06T01:22:02.892Z,2.80
2023-04-06T01:24:35.465Z,3.58
2023-04-06T01:27:14.181Z,3.75
2023-04-06T01:30:05.214Z,3.65
2023-04-06T01:32:46.042Z,4.82
2023-04-06T01:35:20.556Z,4.53
2023-04-06T01:38:01.266Z,3.95
2023-04-06T01:40:39.627Z,4.82
2023-04-06T01:43:09.014Z,3.17
2023-04-06T01:45:47.355Z,5.37
2023-04-06T01:48:21.118Z,3.28
2023-04-06T01:53:26.955Z,1.92
2023-04-06T01:56:03.480Z,4.85
2023-04-06T01:58:38.037Z,2.03
2023-04-06T02:01:06.763Z,5.68
2023-04-06T02:03:48.375Z,3.60
2023-04-06T02:06:17.109Z,4.40
2023-04-06T02:08:46.601Z,3.10
2023-04-06T02:11:21.966Z,5.00
2023-04-06T02:14:01.373Z,3.45
2023-04-06T02:16:33.568Z,5.55
2023-04-06T02:19:02.182Z,3.30
2023-04-06T02:21:30.826Z,4.93
2023-04-06T02:24:00.540Z,3.75
2023-04-06T02:26:31.387Z,2.15
2023-04-06T02:28:59.686Z,3.40
2023-04-06T02:31:29.378Z,3.67
2023-04-06T02:33:57.935Z,5.13
2023-04-06T02:36:27.091Z,3.90
2023-04-06T02:38:58.401Z,2.73
2023-04-06T02:41:28.005Z,7.55
2023-04-06T02:43:59.394Z,6.05
2023-04-06T02:46:40.252Z,5.85
2023-04-06T02:49:08.886Z,5.15
2023-04-06T02:51:38.152Z,10.52
2023-04-06T02:54:27.165Z,4.07
2023-04-06T02:56:56.039Z,5.97
2023-04-06T02:59:30.811Z,3.78
2023-04-06T03:02:10.331Z,3.30
2023-04-06T03:04:39.458Z,1.85
2023-04-06T03:07:26.311Z,5.22
2023-04-06T03:09:54.945Z,3.35
2023-04-06T03:12:23.614Z,4.15
2023-04-06T03:15:19.545Z,3.78
2023-04-06T03:17:53.060Z,4.40
2023-04-06T03:20:34.933Z,5.18
2023-04-06T03:23:04.437Z,3.42
2023-04-06T03:25:37.320Z,4.68
2023-04-06T03:28:08.719Z,3.65
2023-04-06T03:30:45.816Z,3.95
2023-04-06T03:33:16.397Z,4.70
2023-04-06T03:35:55.136Z,2.53
2023-04-06T03:38:27.868Z,2.47
2023-04-06T03:40:57.866Z,2.47
2023-04-06T03:43:29.035Z,3.30
2023-04-06T03:45:58.803Z,4.15
2023-04-06T03:48:27.745Z,3.25
2023-04-06T03:50:56.096Z,4.80
2023-04-06T03:53:25.391Z,3.08
2023-04-06T03:55:53.669Z,4.78
2023-04-06T03:58:23.941Z,2.30
2023-04-06T04:00:54.584Z,4.72
2023-04-06T04:03:28.118Z,3.88
2023-04-06T04:05:57.434Z,4.30
2023-04-06T04:08:28.708Z,4.93
2023-04-06T04:13:28.236Z,3.83
2023-04-06T04:16:01.325Z,4.28
2023-04-06T04:18:33.394Z,5.60
2023-04-06T04:21:01.934Z,5.93
2023-04-06T04:23:31.673Z,3.03
2023-04-06T04:26:00.936Z,4.82
2023-04-06T04:28:29.211Z,5.22
2023-04-06T04:30:58.442Z,5.23
2023-04-06T04:33:27.640Z,5.70
2023-04-06T04:36:00.249Z,9.88
2023-04-06T04:38:35.498Z,10.48
2023-04-06T04:41:06.179Z,15.18
2023-04-06T04:43:37.304Z,8.65
2023-04-06T04:46:08.900Z,6.70
2023-04-06T04:48:43.205Z,5.68
2023-04-06T04:51:17.764Z,5.78
2023-04-06T04:54:09.468Z,6.38
2023-04-06T04:56:40.135Z,6.13
2023-04-06T04:59:24.187Z,5.05
2023-04-06T05:02:02.944Z,8.43
2023-04-06T05:04:46.395Z,5.80
2023-04-06T05:09:56.675Z,6.03
2023-04-06T05:12:29.242Z,5.50
2023-04-06T05:15:09.673Z,4.53
2023-04-06T05:17:40.117Z,5.05
2023-04-06T05:20:10.839Z,14.05
2023-04-06T05:22:48.143Z,5.68
2023-04-06T05:25:18.122Z,9.57
2023-04-06T05:27:48.660Z,6.72
2023-04-06T05:30:30.632Z,5.18
2023-04-06T05:33:00.955Z,4.97
2023-04-06T05:35:38.973Z,3.47
2023-04-06T05:38:13.760Z,5.57
2023-04-06T05:40:42.591Z,5.03
2023-04-06T05:43:15.861Z,4.25
2023-04-06T05:45:47.729Z,7.95
2023-04-06T05:48:16.692Z,5.47
2023-04-06T05:50:49.576Z,7.30
2023-04-06T05:53:27.642Z,7.68
2023-04-06T05:55:59.491Z,5.90
2023-04-06T05:58:28.188Z,5.50
2023-04-06T06:00:59.909Z,8.48
2023-04-06T06:03:31.997Z,10.48
2023-04-06T06:06:05.152Z,7.05
2023-04-06T06:09:02.100Z,6.65
2023-04-06T06:11:34.035Z,8.23
2023-04-06T06:14:03.693Z,6.32
2023-04-06T06:16:36.388Z,12.55
2023-04-06T06:19:05.526Z,7.00
2023-04-06T06:21:34.801Z,9.63
2023-04-06T06:24:09.139Z,8.70
2023-04-06T06:26:38.838Z,12.60
2023-04-06T06:29:09.685Z,8.02
2023-04-06T06:31:41.115Z,7.70
2023-04-06T06:34:12.334Z,6.00
2023-04-06T06:36:41.988Z,10.45
2023-04-06T06:39:14.264Z,7.00
2023-04-06T06:44:11.993Z,9.52
2023-04-06T06:46:41.155Z,6.60
2023-04-06T06:49:12.143Z,7.45
2023-04-06T06:51:40.836Z,12.98
2023-04-06T06:54:09.835Z,8.05
2023-04-06T06:56:40.558Z,9.63
2023-04-06T06:59:12.481Z,11.95
2023-04-06T07:01:41.288Z,8.82
2023-04-06T07:04:12.782Z,7.35
2023-04-06T07:06:41.461Z,8.60
2023-04-06T07:09:09.955Z,11.10
2023-04-06T07:11:39.846Z,6.30
2023-04-06T07:14:08.966Z,7.05
2023-04-06T07:16:38.003Z,6.57
2023-04-06T07:19:06.901Z,7.43
2023-04-06T07:21:37.615Z,6.80
2023-04-06T07:24:06.238Z,7.53
2023-04-06T07:26:34.718Z,8.60
2023-04-06T07:29:05.712Z,7.15
2023-04-06T07:31:34.544Z,7.93
2023-04-06T07:34:06.782Z,6.22
2023-04-06T07:39:05.124Z,6.63
2023-04-06T07:41:33.572Z,7.25
2023-04-06T07:44:03.352Z,6.15
2023-04-06T07:46:33.422Z,7.80
2023-04-06T07:49:03.100Z,8.88
2023-04-06T07:51:35.146Z,8.13
2023-04-06T07:56:32.372Z,6.50
2023-04-06T07:59:00.993Z,9.93
2023-04-06T08:01:30.507Z,7.25
2023-04-06T08:04:03.588Z,7.13
2023-04-06T08:06:32.373Z,9.73
2023-04-06T08:09:01.427Z,8.23
2023-04-06T08:11:29.745Z,7.80
2023-04-06T08:13:59.057Z,5.95
2023-04-06T08:16:27.687Z,7.00
2023-04-06T08:18:56.065Z,7.10
2023-04-06T08:21:26.738Z,6.32
2023-04-06T08:23:55.858Z,9.60
2023-04-06T08:26:26.442Z,6.25
2023-04-06T08:28:56.608Z,5.93
2023-04-06T08:31:25.907Z,5.80
2023-04-06T08:33:56.149Z,6.68
2023-04-06T08:36:25.912Z,9.55
2023-04-06T08:41:23.159Z,6.90
2023-04-06T08:44:00.514Z,6.50
2023-04-06T08:46:32.521Z,7.55
2023-04-06T08:49:04.124Z,6.55
2023-04-06T08:51:37.528Z,12.60
2023-04-06T08:54:07.386Z,7.38
2023-04-06T08:56:40.437Z,7.90
2023-04-06T08:59:11.768Z,7.57
2023-04-06T09:01:43.546Z,8.57
2023-04-06T09:04:13.938Z,8.93
2023-04-06T09:06:43.985Z,6.80
2023-04-06T09:11:46.626Z,7.73
2023-04-06T09:14:16.076Z,5.80
2023-04-06T09:16:48.194Z,5.80
2023-04-06T09:19:18.170Z,8.55
2023-04-06T09:21:48.327Z,13.35
2023-04-06T09:24:19.487Z,6.50
2023-04-06T09:26:49.081Z,6.00
2023-04-06T09:32:05.253Z,6.93
2023-04-06T09:34:33.953Z,6.68
2023-04-06T09:37:14.459Z,5.40
2023-04-06T09:39:43.652Z,7.25
2023-04-06T09:42:14.572Z,6.85
2023-04-06T09:44:43.399Z,8.85
2023-04-06T09:47:12.179Z,8.32
2023-04-06T09:49:42.452Z,10.13
2023-04-06T09:52:14.593Z,7.25
2023-04-06T09:54:45.729Z,7.47
2023-04-06T09:57:27.426Z,6.78
2023-04-06T10:00:09.204Z,8.10
2023-04-06T10:02:48.130Z,9.93
2023-04-06T10:05:22.554Z,7.45
2023-04-06T10:08:00.185Z,7.75
2023-04-06T10:10:33.157Z,6.53
2023-04-06T10:13:03.767Z,5.97
2023-04-06T10:15:33.245Z,8.63
2023-04-06T10:20:38.072Z,6.20
2023-04-06T10:23:15.226Z,7.50
2023-04-06T10:25:54.467Z,16.73
2023-04-06T10:28:23.236Z,6.60
2023-04-06T10:30:51.878Z,7.53
2023-04-06T10:33:22.233Z,7.97
2023-04-06T10:35:52.089Z,8.38
2023-04-06T10:38:23.044Z,7.53
2023-04-06T10:40:51.648Z,9.48
2023-04-06T10:43:21.940Z,5.43
2023-04-06T10:45:58.119Z,6.65
2023-04-06T10:48:27.918Z,5.45
2023-04-06T10:53:27.562Z,7.55
2023-04-06T10:55:58.845Z,6.22
2023-04-06T10:58:28.641Z,7.72
2023-04-06T11:00:58.311Z,9.43
2023-04-06T11:05:57.543Z,5.85
2023-04-06T11:08:31.138Z,9.95
2023-04-06T11:11:07.714Z,9.63
2023-04-06T11:13:41.350Z,9.27
2023-04-06T11:16:14.602Z,6.45
2023-04-06T11:18:54.313Z,7.13
2023-04-06T11:23:52.860Z,7.23
2023-04-06T11:26:22.744Z,8.68
2023-04-06T11:28:51.492Z,6.28
2023-04-06T11:31:20.077Z,5.00
2023-04-06T11:33:57.305Z,8.10
2023-04-06T11:36:26.215Z,5.10
2023-04-06T11:38:56.102Z,6.60
2023-04-06T11:41:26.341Z,8.95
2023-04-06T11:43:58.114Z,4.47
2023-04-06T11:46:28.441Z,6.80
2023-04-06T11:49:01.285Z,5.03
2023-04-06T11:51:30.516Z,7.43
2023-04-06T11:54:00.450Z,4.80
2023-04-06T11:56:30.158Z,3.55
2023-04-06T11:59:00.884Z,5.00
2023-04-06T12:01:32.083Z,3.80
2023-04-06T12:04:03.675Z,4.68
2023-04-06T12:06:34.470Z,10.45
2023-04-06T12:09:04.673Z,6.10
2023-04-06T12:11:35.210Z,5.15
2023-04-06T12:14:06.109Z,3.10
2023-04-06T12:16:35.344Z,4.68
2023-04-06T12:19:04.056Z,4.55
2023-04-06T12:21:37.318Z,4.72
2023-04-06T12:24:07.358Z,5.95
2023-04-06T12:26:35.858Z,5.57
2023-04-06T12:29:07.972Z,3.35
2023-04-06T12:31:37.887Z,6.60
2023-04-06T12:34:09.168Z,4.60
2023-04-06T12:36:39.225Z,4.70
2023-04-06T12:39:09.271Z,6.03
2023-04-06T12:41:37.678Z,6.60
2023-04-06T12:44:06.064Z,9.18
2023-04-06T12:46:36.198Z,7.00
2023-04-06T12:49:04.638Z,4.40
2023-04-06T12:51:34.299Z,4.40
2023-04-06T12:54:02.799Z,4.85
2023-04-06T12:56:33.659Z,4.57
2023-04-06T12:59:04.919Z,6.40
2023-04-06T13:01:34.251Z,6.43
2023-04-06T13:04:02.828Z,8.40
2023-04-06T13:06:32.558Z,6.03
2023-04-06T13:09:01.198Z,4.53
2023-04-06T13:11:30.549Z,5.65
2023-04-06T13:14:00.999Z,5.63
2023-04-06T13:16:30.759Z,5.57
2023-04-06T13:18:59.707Z,8.35
2023-04-06T13:21:28.512Z,8.52
2023-04-06T13:26:26.880Z,7.20
2023-04-06T13:28:57.190Z,8.35
2023-04-06T13:31:27.434Z,6.75
2023-04-06T13:33:55.795Z,7.47
2023-04-06T13:36:24.563Z,6.72
2023-04-06T13:38:56.438Z,6.50
2023-04-06T13:41:27.509Z,6.72
2023-04-06T13:43:56.014Z,5.72
2023-04-06T13:46:25.202Z,6.72
2023-04-06T13:48:55.748Z,7.50
2023-04-06T13:51:24.474Z,5.72
2023-04-06T13:53:54.562Z,6.80
2023-04-06T13:56:22.878Z,6.13
2023-04-06T13:58:51.089Z,7.05
2023-04-06T14:01:19.440Z,7.50
2023-04-06T14:03:49.014Z,13.13
2023-04-06T14:09:00.605Z,6.50
2023-04-06T14:11:28.944Z,5.83
2023-04-06T14:13:58.706Z,7.03
2023-04-06T14:16:27.453Z,7.43
2023-04-06T14:18:56.530Z,5.67
2023-04-06T14:21:27.669Z,7.55
2023-04-06T14:23:57.988Z,8.32
2023-04-06T14:26:28.623Z,6.50
2023-04-06T14:28:56.955Z,7.88
2023-04-06T14:31:25.826Z,7.18
2023-04-06T14:36:24.190Z,9.27
2023-04-06T14:38:54.293Z,7.03
2023-04-06T14:41:28.420Z,7.03
2023-04-06T14:43:57.657Z,7.53
2023-04-06T14:46:26.545Z,6.13
2023-04-06T14:48:57.000Z,6.03
2023-04-06T14:51:29.433Z,8.35
2023-04-06T14:53:59.822Z,5.25
2023-04-06T14:56:28.519Z,7.70
2023-04-06T14:59:00.071Z,9.77
2023-04-06T15:01:29.702Z,7.90
2023-04-06T15:03:58.145Z,6.78
2023-04-06T15:06:26.620Z,5.15
2023-04-06T15:08:56.176Z,6.78
2023-04-06T15:11:25.805Z,5.85
2023-04-06T15:16:24.883Z,4.20
2023-04-06T15:18:53.235Z,6.57
2023-04-06T15:21:21.538Z,9.55
2023-04-06T15:23:50.498Z,5.22
2023-04-06T15:26:18.698Z,5.07
2023-04-06T15:28:49.380Z,3.80
2023-04-06T15:34:09.546Z,4.50
2023-04-06T15:36:38.258Z,8.00
2023-04-06T15:39:09.666Z,6.60
2023-04-06T15:41:38.091Z,5.10
2023-04-06T15:44:07.738Z,6.13
2023-04-06T15:46:35.968Z,7.03
2023-04-06T15:49:05.347Z,5.28
2023-04-06T15:51:34.090Z,13.35
2023-04-06T15:54:03.634Z,16.77
2023-04-06T15:56:33.412Z,17.85
2023-04-06T15:59:02.359Z,11.98
2023-04-06T16:01:32.324Z,6.80
2023-04-06T16:04:00.956Z,10.63
2023-04-06T16:06:29.173Z,34.78
2023-04-06T16:08:57.312Z,20.88
2023-04-06T16:11:26.143Z,14.82
2023-04-06T16:13:55.721Z,4.75
2023-04-06T16:16:25.539Z,15.43
2023-04-06T16:18:56.381Z,10.40
2023-04-06T16:23:56.116Z,8.75
2023-04-06T16:26:27.109Z,5.45
2023-04-06T16:28:55.637Z,4.18
2023-04-06T16:31:25.665Z,5.60
2023-04-06T16:33:56.919Z,5.15
2023-04-06T16:36:25.466Z,5.10
2023-04-06T16:38:54.290Z,3.75
2023-04-06T16:41:22.989Z,4.10
2023-04-06T16:46:21.537Z,3.85
2023-04-06T16:48:50.067Z,2.67
2023-04-06T16:51:19.676Z,3.53
2023-04-06T16:53:49.539Z,6.40
2023-04-06T16:56:17.967Z,5.03
2023-04-06T16:58:46.627Z,3.90
2023-04-06T17:01:22.372Z,2.77
2023-04-06T17:03:51.235Z,2.97
2023-04-06T17:06:21.620Z,2.75
2023-04-06T17:08:53.589Z,3.60
2023-04-06T17:11:28.166Z,6.30
2023-04-06T17:14:01.146Z,2.53
2023-04-06T17:16:29.689Z,4.10
2023-04-06T17:18:58.388Z,2.28
2023-04-06T17:21:28.672Z,3.15
2023-04-06T17:23:57.148Z,3.67
2023-04-06T17:26:25.536Z,2.92
2023-04-06T17:28:54.073Z,3.33
2023-04-06T17:31:22.537Z,3.90
2023-04-06T17:33:51.021Z,3.22
2023-04-06T17:36:20.645Z,4.72
2023-04-06T17:38:52.432Z,4.13
2023-04-06T17:41:21.512Z,1.85
2023-04-06T17:43:51.593Z,1.63
2023-04-06T17:46:25.449Z,3.75
2023-04-06T17:48:53.602Z,5.28
2023-04-06T17:51:21.925Z,4.68
2023-04-06T17:53:50.565Z,4.60
2023-04-06T18:01:19.329Z,3.25
2023-04-06T18:03:47.464Z,3.60
2023-04-06T18:06:17.611Z,5.28
2023-04-06T18:08:46.077Z,3.00
2023-04-06T18:11:18.582Z,4.15
2023-04-06T18:13:49.597Z,3.35
2023-04-06T18:16:20.152Z,3.92
2023-04-06T18:18:48.974Z,3.45
2023-04-06T18:21:17.105Z,3.20
2023-04-06T18:23:45.522Z,4.18
2023-04-06T18:26:18.553Z,3.08
2023-04-06T18:28:49.671Z,7.43
2023-04-06T18:33:46.915Z,4.25
2023-04-06T18:36:15.708Z,4.72
2023-04-06T18:38:45.584Z,5.85
2023-04-06T18:41:13.872Z,3.80
2023-04-06T18:43:42.156Z,5.35
2023-04-06T18:46:15.699Z,3.95
2023-04-06T18:48:44.752Z,4.38
2023-04-06T18:51:13.150Z,3.67
2023-04-06T18:53:42.288Z,6.22
2023-04-06T18:56:18.766Z,5.57
2023-04-06T18:58:48.659Z,5.30
2023-04-06T19:01:27.112Z,5.15
2023-04-06T19:03:57.067Z,2.88
2023-04-06T19:06:27.923Z,7.50
2023-04-06T19:08:56.874Z,3.67
2023-04-06T19:11:26.138Z,5.30
2023-04-06T19:13:55.173Z,5.13
2023-04-06T19:16:26.421Z,2.80
2023-04-06T19:18:54.737Z,5.13
2023-04-06T19:21:27.138Z,3.40
2023-04-06T19:23:56.506Z,4.05
2023-04-06T19:26:27.909Z,4.68
2023-04-06T19:28:58.740Z,3.42
2023-04-06T19:31:30.631Z,3.83
2023-04-06T19:33:58.855Z,5.72
2023-04-06T19:36:28.252Z,4.78
2023-04-06T19:38:56.470Z,5.35
2023-04-06T19:41:25.816Z,4.47
2023-04-06T19:43:54.172Z,7.93
2023-04-06T19:46:23.024Z,7.72
2023-04-06T19:48:52.702Z,5.10
2023-04-06T19:51:21.122Z,7.00
2023-04-06T19:53:49.222Z,5.50
2023-04-06T19:56:17.755Z,4.38
2023-04-06T19:58:45.850Z,7.28
2023-04-06T20:01:14.153Z,4.68
2023-04-06T20:06:13.449Z,7.45
2023-04-06T20:08:41.935Z,5.32
2023-04-06T20:11:11.186Z,5.57
2023-04-06T20:13:40.125Z,6.90
2023-04-06T20:16:08.424Z,6.50
2023-04-06T20:18:37.379Z,7.47
2023-04-06T20:21:06.092Z,6.03
2023-04-06T20:23:37.483Z,6.40
2023-04-06T20:26:09.190Z,9.48
2023-04-06T20:28:39.301Z,7.80
2023-04-06T20:31:08.340Z,10.23
2023-04-06T20:33:37.240Z,7.17
2023-04-06T20:36:05.864Z,9.63
2023-04-06T20:38:36.249Z,8.23
2023-04-06T20:41:04.901Z,10.50
2023-04-06T20:43:33.257Z,8.90
2023-04-06T20:46:02.851Z,14.80
2023-04-06T20:48:33.681Z,11.63
2023-04-06T20:51:03.351Z,9.95
2023-04-06T20:53:32.033Z,8.90
2023-04-06T20:56:02.396Z,11.23
2023-04-06T20:58:30.671Z,13.07
2023-04-06T21:01:03.615Z,8.30
2023-04-06T21:03:32.200Z,11.85
2023-04-06T21:06:14.296Z,11.15
2023-04-06T21:11:12.420Z,11.63
2023-04-06T21:13:49.846Z,9.60
2023-04-06T21:16:22.804Z,12.90
2023-04-06T21:18:52.784Z,11.80
2023-04-06T21:21:21.166Z,7.03
2023-04-06T21:23:52.837Z,8.18
2023-04-06T21:26:32.231Z,9.68
2023-04-06T21:29:04.937Z,10.27
2023-04-06T21:31:36.833Z,9.15
2023-04-06T21:34:14.693Z,12.82
2023-04-06T21:36:50.968Z,9.52
2023-04-06T21:39:19.177Z,10.40
2023-04-06T21:41:48.865Z,11.70
2023-04-06T21:44:17.333Z,8.80
2023-04-06T21:46:48.542Z,13.40
2023-04-06T21:49:18.332Z,11.07
2023-04-06T21:51:48.796Z,11.73
2023-04-06T21:54:17.582Z,11.43
2023-04-06T21:56:48.328Z,10.75
2023-04-06T21:59:18.406Z,11.73
2023-04-06T22:01:46.964Z,12.13
2023-04-06T22:04:16.389Z,11.63
2023-04-06T22:06:45.117Z,8.32
2023-04-06T22:09:13.704Z,7.75
2023-04-06T22:11:42.422Z,11.32
2023-04-06T22:14:11.398Z,16.15
2023-04-06T22:16:41.291Z,14.20
2023-04-06T22:19:09.495Z,12.75
2023-04-06T22:21:38.096Z,9.15
2023-04-06T22:24:08.448Z,12.30
2023-04-06T22:26:36.609Z,8.85
2023-04-06T22:29:05.628Z,11.07
2023-04-06T22:31:34.596Z,7.97
2023-04-06T22:34:05.188Z,7.55
2023-04-06T22:36:33.624Z,8.57
2023-04-06T22:39:02.416Z,9.95
2023-04-06T22:41:31.041Z,9.50
2023-04-06T22:44:01.526Z,8.60
2023-04-06T22:46:30.679Z,10.48
2023-04-06T22:48:59.768Z,8.38
2023-04-06T22:51:29.485Z,7.55
2023-04-06T22:53:57.887Z,9.45
2023-04-06T22:56:26.112Z,7.97
2023-04-06T22:58:56.889Z,11.95
2023-04-06T23:01:25.663Z,9.15
2023-04-06T23:03:56.604Z,6.55
2023-04-06T23:06:28.386Z,9.77
2023-04-06T23:08:59.554Z,7.75
2023-04-06T23:11:30.902Z,8.48
2023-04-06T23:13:59.375Z,7.10
2023-04-06T23:16:27.814Z,9.13
2023-04-06T23:18:56.197Z,8.18
2023-04-06T23:21:24.358Z,6.80
2023-04-06T23:23:52.962Z,10.20
2023-04-06T23:26:24.386Z,7.53
2023-04-06T23:28:53.050Z,8.00
2023-04-06T23:31:21.354Z,7.07
2023-04-06T23:33:49.694Z,8.77
2023-04-06T23:36:17.996Z,8.63
2023-04-06T23:38:46.254Z,9.07
2023-04-06T23:41:16.091Z,8.77
2023-04-06T23:43:48.250Z,7.10
2023-04-06T23:46:18.177Z,7.78
2023-04-06T23:48:47.164Z,7.30
2023-04-06T23:51:15.988Z,8.95
2023-04-06T23:53:44.217Z,8.88
2023-04-06T23:56:12.985Z,12.50
2023-04-06T23:58:42.204Z,8.50
